Kalamazoo Battle Creek International Airport
KAZO : now visible

Airfield :











YOU CAN JOIN US ON...

 
LOGIN :

Register | Disclaimer

   EN    FR    IT 

 









Legend :    VFR   Marginal VFR   IFR   Intensive IFR   Very Intensive IFR
Visi :
Ceiling :
>= 8 km
>= 3000ft
5 to 8 km
1000 to 3000 ft
1500m to 5 km
500 to 1000 ft
800 to 1500m
200 to 500 ft
< 800m
< 200 ft
Symbols :   Thunderstorms  Fog  Heavy snow  Heavy precipitations  Wind > 20 kt






- Airport Elevation : 874 ft
- IATA code : AZO


KAZO - Kalamazoo Battle Creek International

CURRENT METAR :
  • 230153Z 16005KT 10SM CLR 19/16 A2995 RMK AO2 SLP142 T01890156

EXPIRED METARs :
  • 230053Z 15006KT 8SM CLR 19/16 A2996 RMK AO2 SLP147 T01890156
  • 222353Z 15005KT 8SM CLR 19/16 A2998 RMK AO2 SLP152 T01890156 10206 20133 56011

TAF KAZO
Valid from the 23 at 00:00 until the 24 at 00:00 UTC


222340Z 2300/2324 15006KT P6SM SKC
FM230400 18014G22KT P6SM SCT040 WS020/24045KT
FM231400 20012G24KT 4SM -SHRA BR VCTS OVC015CB
FM231600 21012G20KT 2SM -SHRA OVC008
FM231900 33010G19KT P6SM OVC015
KZAU FIR / North America



MET'MAP, your aeronautical weather chart ! - Copyright ORBIFLY December 2007 - Disclaimer

ORBIFLY MET'MAP TEAM :

Programming & Development : Alexandra Zaïnal
Concept & original design : Baudouin d'Aumeries
Assistance for programming : Marc-Olivier Méhu
Technical & hardware support : Manuel Goepfert

Contact : metmap@orbifly.com




SOURCES & CREDITS :

   NOAA       Earth
Advisory